Flight Track Log - Related Links

Times and Time Zones

All times are in EDT time to prevent confusion due to time zone crossing. See the SLI2311 flight status page for this flight to view local times or setup timezone preferences in your user account.

Time Position Orientation Groundspeed Altitude Reporting Facility
EDT Latitude Longitude Course Direction KTS MPH feet Rate Location/Type
Wed 05:17:00 PM 20.8128 -103.5857 319° Northwest  Level Estimated
Wed 05:18:00 PM 20.8855 -103.6545 319° Northwest  Level Estimated
Wed 05:19:00 PM 20.9582 -103.7233 318° Northwest  Level Estimated
Wed 05:20:00 PM 21.0308 -103.7923 318° Northwest  Level Estimated
Wed 05:21:00 PM 21.1034 -103.8613 318° Northwest  Level Estimated
Wed 05:22:00 PM 21.1760 -103.9303 318° Northwest  Level Estimated
Wed 05:23:00 PM 21.2485 -103.9995 318° Northwest  Level Estimated
Wed 05:24:00 PM 21.3210 -104.0687 318° Northwest  Level Estimated
Wed 05:25:00 PM 21.3935 -104.1379 318° Northwest  Level Estimated
Wed 05:26:00 PM 21.4660 -104.2073 318° Northwest  Level Estimated
Wed 05:27:00 PM 21.5384 -104.2767 318° Northwest  Level Estimated
Wed 05:28:00 PM 21.6108 -104.3461 318° Northwest  Level Estimated
Wed 05:29:00 PM 21.6832 -104.4157 318° Northwest  Level Estimated
Wed 05:30:00 PM 21.7555 -104.4853 318° Northwest  Level Estimated
Wed 05:31:00 PM 21.8279 -104.5550 318° Northwest  Level Estimated
Wed 05:32:00 PM 21.9002 -104.6247 318° Northwest  Level Estimated
Wed 05:33:00 PM 21.9724 -104.6945 318° Northwest  Level Estimated
Wed 05:34:00 PM 22.0446 -104.7645 318° Northwest  Level Estimated
Wed 05:35:00 PM 22.1168 -104.8344 318° Northwest  Level Estimated
Wed 05:36:00 PM 22.1890 -104.9045 318° Northwest  Level Estimated
Wed 05:37:00 PM 22.2612 -104.9746 318° Northwest  Level Estimated
Wed 05:38:00 PM 22.3333 -105.0447 318° Northwest  Level Estimated
Wed 05:39:00 PM 22.4053 -105.1150 318° Northwest  Level Estimated
Wed 05:40:00 PM 22.4774 -105.1853 318° Northwest  Level Estimated
Wed 05:41:00 PM 22.5494 -105.2557 318° Northwest  Level Estimated
Wed 05:42:00 PM 22.6214 -105.3262 318° Northwest  Level Estimated
Wed 05:43:00 PM 22.6934 -105.3968 318° Northwest  Level Estimated
Wed 05:44:00 PM 22.7653 -105.4674 318° Northwest  Level Estimated
Wed 05:45:00 PM 22.8372 -105.5381 318° Northwest  Level Estimated
Wed 05:46:00 PM 22.9090 -105.6089 318° Northwest  Level Estimated
Wed 05:47:00 PM 22.9809 -105.6797 318° Northwest  Level Estimated
Wed 05:48:00 PM 23.0527 -105.7506 318° Northwest  Level Estimated
Wed 05:49:00 PM 23.1244 -105.8216 318° Northwest  Level Estimated
Wed 05:50:00 PM 23.1962 -105.8927 318° Northwest  Level Estimated
Wed 05:51:00 PM 23.2679 -105.9639 318° Northwest  Level Estimated
Wed 05:52:00 PM 23.3395 -106.0351 318° Northwest  Level Estimated
Wed 05:53:00 PM 23.4112 -106.1064 318° Northwest  Level Estimated
Wed 05:54:00 PM 23.4828 -106.1778 318° Northwest  Level Estimated
Wed 05:55:00 PM 23.5544 -106.2492 318° Northwest  Level Estimated
Wed 05:56:00 PM 23.6259 -106.3208 318° Northwest  Level Estimated
Wed 05:57:00 PM 23.6974 -106.3924 317° Northwest  Level Estimated
Wed 05:58:00 PM 23.7689 -106.4641 317° Northwest  Level Estimated
Wed 05:59:00 PM 23.8403 -106.5359 317° Northwest  Level Estimated
Wed 06:00:00 PM 23.9118 -106.6077 317° Northwest  Level Estimated
Wed 06:01:00 PM 23.9831 -106.6796 317° Northwest  Level Estimated
Wed 06:02:00 PM 24.0545 -106.7516 317° Northwest  Level Estimated
Wed 06:03:00 PM 24.1258 -106.8237 317° Northwest  Level Estimated
Wed 06:04:00 PM 24.1971 -106.8959 317° Northwest  Level Estimated
Wed 06:05:00 PM 24.2683 -106.9682 317° Northwest  Level Estimated
Wed 06:06:00 PM 24.3395 -107.0405 317° Northwest  Level Estimated
Wed 06:07:00 PM 24.4107 -107.1129 317° Northwest  Level Estimated
Wed 06:08:00 PM 24.4818 -107.1854 317° Northwest  Level Estimated
Wed 06:09:00 PM 24.5529 -107.2580 317° Northwest  Level Estimated
Wed 06:10:00 PM 24.6240 -107.3307 317° Northwest  Level Estimated
Wed 06:11:00 PM 24.6950 -107.4034 317° Northwest  Level Estimated
Wed 06:12:00 PM 24.7645 -107.4747 317° Northwest  Level Estimated
Wed 06:13:00 PM 24.7645 -107.4747 138° Southeast  Level Estimated
Wed 06:14:00 PM 24.7645 -107.4747 138° Southeast  Level Estimated
Wed 06:15:00 PM 24.7645 -107.4747 138° Southeast  Level Estimated
Wed 06:16:00 PM 24.7645 -107.4747 138° Southeast  Level Estimated
Wed 06:17:00 PM 24.7645 -107.4747 138° Southeast  Level Estimated
Wed 06:18:00 PM 24.7645 -107.4747 138° Southeast  Level Estimated
Wed 06:19:00 PM 24.7645 -107.4747 138° Southeast  Level Estimated
Wed 06:20:00 PM 24.7645 -107.4747 138° Southeast  Level Estimated
Wed 06:21:00 PM 24.7645 -107.4747 138° Southeast  Level Estimated
Wed 06:22:00 PM 24.7645 -107.4747 138° Southeast  Level Estimated

Login

Don't have an account? Register now (free) for customized features, flight alerts, and more!